Time;durP1;ratioP1;P1;durP2;ratioP2;P2;SDS_P1;SDS_P2;PMS_P1;PMS_P2;Temp;Humidity;BMP_temperature;BMP_pressure;BME280_temperature;BME280_humidity;BME280_pressure;Samples;Min_cycle;Max_cycle;Signal;HPM_P1;HPM_P2
2022/03/23 00:01:04;;;;;;;;;;;;;;;10.46;39.77;101898.78;6108847;23;6767;-75
2022/03/23 00:03:30;;;;;;;;;;;;;;;10.48;39.45;101908.34;6110512;23;7001;-75
2022/03/23 00:05:56;;;;;;;;;;;;;;;10.49;39.63;101901.53;6111684;23;7166;-75
2022/03/23 00:08:22;;;;;;;;;;;;;;;10.51;39.74;101903.44;6113592;23;6993;-75
2022/03/23 00:10:48;;;;;;;;;;;;;;;10.54;38.96;101902.78;6087217;23;6795;-76
2022/03/23 00:13:14;;;;;;;;;;;;;;;10.55;38.82;101899.44;6108300;23;6771;-76
2022/03/23 00:15:40;;;;;;;;;;;;;;;10.52;39.57;101897.53;6111074;23;7331;-76
2022/03/23 00:18:06;;;;;;;;;;;;;;;10.47;39.17;101903.13;6114419;23;6858;-75
2022/03/23 00:20:33;;;;;;;;;;;;;;;10.42;39.09;101907.91;6113115;23;7026;-75
2022/03/23 00:22:59;;;;;;;;;;;;;;;10.40;39.08;101896.63;6110098;23;6937;-76
2022/03/23 00:25:24;;;;;;;;;;;;;;;10.37;39.95;101899.84;6112125;23;6902;-76
2022/03/23 00:27:50;;;;;;;;;;;;;;;10.34;39.68;101899.63;6113430;23;6934;-76
2022/03/23 00:30:16;;;;;;;;;;;;;;;10.28;39.01;101901.72;6110769;23;6790;-77
2022/03/23 00:32:42;;;;;;;;;;;;;;;10.19;39.23;101899.41;6109713;23;7343;-76
2022/03/23 00:35:07;;;;;;;;;;;;;;;10.10;39.44;101899.59;6108186;23;6887;-76
2022/03/23 00:37:33;;;;;;;;;;;;;;;10.01;40.73;101898.91;6133972;23;6851;-76
2022/03/23 00:39:59;;;;;;;;;;;;;;;9.93;39.77;101894.88;6113502;23;7062;-76
2022/03/23 00:42:25;;;;;;;;;;;;;;;9.84;40.16;101898.53;6110850;23;6874;-75
2022/03/23 00:44:51;;;;;;;;;;;;;;;9.78;40.99;101899.75;6112662;23;6982;-75
2022/03/23 00:47:17;;;;;;;;;;;;;;;9.71;40.29;101891.63;6109493;23;6949;-75
2022/03/23 00:49:44;;;;;;;;;;;;;;;9.67;41.20;101891.28;6110961;23;6870;-75
2022/03/23 00:52:11;;;;;;;;;;;;;;;9.65;40.37;101891.16;6111409;23;6783;-75
2022/03/23 00:54:38;;;;;;;;;;;;;;;9.68;40.41;101888.81;6112609;23;6786;-75
2022/03/23 00:57:06;;;;;;;;;;;;;;;9.70;40.33;101886.38;6088229;23;6935;-75
2022/03/23 00:59:33;;;;;;;;;;;;;;;9.70;41.08;101886.38;6109993;23;6783;-76
2022/03/23 01:01:58;;;;;;;;;;;;;;;9.67;40.14;101886.16;6085004;23;8065;-76
2022/03/23 01:04:25;;;;;;;;;;;;;;;9.68;40.80;101882.81;6106950;23;6770;-76
2022/03/23 01:06:52;;;;;;;;;;;;;;;9.69;41.09;101880.34;6107973;23;7041;-76
2022/03/23 01:09:23;;;;;;;;;;;;;;;9.69;40.31;101882.03;6108636;23;6878;-76
2022/03/23 01:11:54;;;;;;;;;;;;;;;9.70;40.70;101883.81;6108578;23;6791;-76
2022/03/23 01:14:23;;;;;;;;;;;;;;;9.67;40.09;101886.16;6107921;23;7379;-76
2022/03/23 01:16:50;;;;;;;;;;;;;;;9.62;40.42;101887.47;6108783;23;7006;-76
2022/03/23 01:19:18;;;;;;;;;;;;;;;9.54;41.20;101880.09;6112192;23;7046;-76
2022/03/23 01:21:44;;;;;;;;;;;;;;;9.47;40.42;101880.41;6082319;23;6931;-75
2022/03/23 01:24:10;;;;;;;;;;;;;;;9.39;40.48;101877.25;6108884;23;7386;-75
2022/03/23 01:26:37;;;;;;;;;;;;;;;9.33;40.96;101881.03;6109891;23;6783;-75
2022/03/23 01:29:03;;;;;;;;;;;;;;;9.25;41.49;101876.19;6084076;23;7047;-75
2022/03/23 01:31:31;;;;;;;;;;;;;;;9.19;41.63;101875.75;6110096;23;6805;-75
2022/03/23 01:33:59;;;;;;;;;;;;;;;9.13;42.12;101865.94;6109727;23;6782;-75
2022/03/23 01:36:27;;;;;;;;;;;;;;;9.09;41.37;101876.69;6111167;23;6946;-75
2022/03/23 01:38:53;;;;;;;;;;;;;;;9.06;41.91;101879.00;6087466;23;9682;-75
2022/03/23 01:41:19;;;;;;;;;;;;;;;9.02;41.49;101882.09;6107926;23;8036;-75
2022/03/23 01:43:45;;;;;;;;;;;;;;;8.98;41.66;101874.97;6111760;23;6767;-75
2022/03/23 01:46:12;;;;;;;;;;;;;;;8.95;41.68;101880.72;6110906;23;7796;-75
2022/03/23 01:48:37;;;;;;;;;;;;;;;8.93;42.87;101881.38;6111222;23;7018;-75
2022/03/23 01:51:03;;;;;;;;;;;;;;;8.91;42.55;101878.72;6113151;23;7071;-75
2022/03/23 01:53:29;;;;;;;;;;;;;;;8.90;41.81;101879.47;6110023;23;7018;-75
2022/03/23 01:55:55;;;;;;;;;;;;;;;8.94;42.58;101878.94;6136457;23;6774;-75
2022/03/23 01:58:21;;;;;;;;;;;;;;;8.94;42.34;101881.50;6110515;23;6782;-75
2022/03/23 02:00:47;;;;;;;;;;;;;;;8.94;42.22;101889.16;6111272;23;6951;-75
2022/03/23 02:03:13;;;;;;;;;;;;;;;8.93;41.98;101882.28;6109209;23;6959;-75
2022/03/23 02:05:38;;;;;;;;;;;;;;;8.91;42.92;101890.59;6108821;23;6778;-75
2022/03/23 02:08:05;;;;;;;;;;;;;;;8.87;42.13;101881.78;6109709;23;6939;-75
2022/03/23 02:10:31;;;;;;;;;;;;;;;8.83;42.78;101874.66;6135550;23;6807;-75
2022/03/23 02:12:57;;;;;;;;;;;;;;;8.78;41.71;101874.28;6108911;23;6767;-75
2022/03/23 02:15:25;;;;;;;;;;;;;;;8.73;42.87;101873.94;6111267;23;7128;-75
2022/03/23 02:17:53;;;;;;;;;;;;;;;8.69;42.32;101874.47;6111208;23;6921;-75
2022/03/23 02:20:20;;;;;;;;;;;;;;;8.65;43.26;101874.09;6110544;23;7079;-75
2022/03/23 02:22:46;;;;;;;;;;;;;;;8.61;43.64;101873.84;6111638;23;6813;-75
2022/03/23 02:25:12;;;;;;;;;;;;;;;8.57;43.55;101884.59;6108877;23;7042;-75
2022/03/23 02:27:40;;;;;;;;;;;;;;;8.52;42.49;101878.22;6085832;23;6933;-75
2022/03/23 02:30:10;;;;;;;;;;;;;;;8.47;43.34;101877.81;6112321;23;7003;-75
2022/03/23 02:32:35;;;;;;;;;;;;;;;8.46;43.59;101872.59;6133419;23;6782;-75
2022/03/23 02:35:01;;;;;;;;;;;;;;;8.47;42.77;101869.28;6108491;23;6830;-75
2022/03/23 02:37:27;;;;;;;;;;;;;;;8.49;43.16;101872.84;6111948;23;7028;-75
2022/03/23 02:39:54;;;;;;;;;;;;;;;8.51;43.29;101867.88;6135488;23;6775;-75
2022/03/23 02:42:20;;;;;;;;;;;;;;;8.51;43.42;101865.34;6111390;23;6893;-75
2022/03/23 02:44:46;;;;;;;;;;;;;;;8.48;43.23;101868.50;6109072;23;6931;-75
2022/03/23 02:47:12;;;;;;;;;;;;;;;8.46;42.90;101867.47;6109793;23;7143;-75
2022/03/23 02:49:39;;;;;;;;;;;;;;;8.43;43.62;101872.31;6111161;23;6782;-75
2022/03/23 02:52:05;;;;;;;;;;;;;;;8.40;43.59;101874.66;6111243;23;6778;-75
2022/03/23 03:03:26;;;;;;;;;;;;;;;8.24;43.96;101878.50;6115273;23;6859;-75
2022/03/23 03:05:52;;;;;;;;;;;;;;;8.23;43.82;101874.16;6113426;23;6870;-75
2022/03/23 03:11:02;;;;;;;;;;;;;;;8.17;44.03;101881.34;6115270;23;6990;-76
2022/03/23 03:13:29;;;;;;;;;;;;;;;8.11;43.82;101876.63;6115540;23;6782;-75
2022/03/23 03:16:03;;;;;;;;;;;;;;;8.09;43.72;101877.28;6118205;23;7020;-75
2022/03/23 03:18:34;;;;;;;;;;;;;;;8.07;43.54;101879.69;6117773;23;6791;-75
2022/03/23 03:21:04;;;;;;;;;;;;;;;8.05;44.29;101877.00;6116630;23;6949;-76
2022/03/23 03:23:30;;;;;;;;;;;;;;;8.05;44.14;101881.25;6117131;23;7195;-75
2022/03/23 03:25:57;;;;;;;;;;;;;;;8.03;43.57;101882.78;6118709;23;6766;-75
2022/03/23 03:28:23;;;;;;;;;;;;;;;8.02;44.43;101881.00;6117873;23;6945;-75
2022/03/23 03:30:49;;;;;;;;;;;;;;;7.99;44.12;101879.06;6116580;23;6873;-75
2022/03/23 03:33:15;;;;;;;;;;;;;;;7.97;44.13;101882.25;6116059;23;6887;-75
2022/03/23 03:35:40;;;;;;;;;;;;;;;7.95;43.97;101878.69;6116003;23;6766;-75
2022/03/23 03:38:07;;;;;;;;;;;;;;;7.92;44.22;101880.25;6117835;23;7191;-75
2022/03/23 03:40:33;;;;;;;;;;;;;;;7.89;44.45;101876.53;6117853;23;7043;-75
2022/03/23 03:42:58;;;;;;;;;;;;;;;7.86;44.78;101873.72;6116782;23;6954;-75
2022/03/23 03:45:24;;;;;;;;;;;;;;;7.81;44.50;101873.31;6117039;23;7071;-75
2022/03/23 03:47:50;;;;;;;;;;;;;;;7.78;45.05;101879.09;6117699;23;6858;-75
2022/03/23 03:50:15;;;;;;;;;;;;;;;7.77;44.57;101876.41;6117501;23;7026;-75
2022/03/23 03:52:41;;;;;;;;;;;;;;;7.77;44.64;101882.41;6117243;23;6967;-75
2022/03/23 03:55:07;;;;;;;;;;;;;;;7.77;44.80;101878.97;6117732;23;6838;-75
2022/03/23 03:57:33;;;;;;;;;;;;;;;7.77;44.74;101886.63;6118591;23;6779;-76
2022/03/23 03:59:59;;;;;;;;;;;;;;;7.76;44.93;101884.81;6119164;23;6778;-76
2022/03/23 04:02:24;;;;;;;;;;;;;;;7.71;44.77;101884.44;6115430;23;6771;-76
2022/03/23 04:04:50;;;;;;;;;;;;;;;7.71;44.72;101896.28;6066343;23;7271;-76
2022/03/23 04:07:16;;;;;;;;;;;;;;;7.67;44.66;101891.72;6115185;23;6907;-75
2022/03/23 04:09:41;;;;;;;;;;;;;;;7.61;45.22;101890.44;6114950;23;6926;-75
2022/03/23 04:12:08;;;;;;;;;;;;;;;7.61;45.34;101900.63;6113347;23;7128;-76
2022/03/23 04:14:34;;;;;;;;;;;;;;;7.58;44.54;101895.28;6113749;23;6790;-75
2022/03/23 04:17:00;;;;;;;;;;;;;;;7.56;44.84;101894.25;6111220;23;6830;-75
2022/03/23 04:19:25;;;;;;;;;;;;;;;7.55;44.35;101891.56;6108527;23;6998;-75
2022/03/23 04:21:51;;;;;;;;;;;;;;;7.50;45.56;101897.19;6109328;23;6973;-76
2022/03/23 04:24:17;;;;;;;;;;;;;;;7.46;45.70;101897.69;6085321;23;7981;-76
2022/03/23 04:26:45;;;;;;;;;;;;;;;7.43;45.13;101899.06;6109853;23;6934;-76
2022/03/23 04:29:11;;;;;;;;;;;;;;;7.38;45.94;101896.13;6109146;23;7567;-76
2022/03/23 04:31:38;;;;;;;;;;;;;;;7.32;45.95;101901.59;6089618;23;6963;-75
2022/03/23 04:34:04;;;;;;;;;;;;;;;7.27;46.05;101905.44;6114976;23;8157;-75
2022/03/23 04:36:29;;;;;;;;;;;;;;;7.26;45.61;101907.84;6114231;23;6782;-75
2022/03/23 04:38:55;;;;;;;;;;;;;;;7.26;46.35;101908.75;6112207;23;6759;-75
2022/03/23 04:41:20;;;;;;;;;;;;;;;7.28;46.45;101909.78;6115057;23;6775;-75
2022/03/23 04:43:46;;;;;;;;;;;;;;;7.31;45.79;101909.16;6114026;23;6955;-75
2022/03/23 04:46:13;;;;;;;;;;;;;;;7.34;45.82;101909.41;6117137;23;6885;-75
2022/03/23 04:48:39;;;;;;;;;;;;;;;7.38;45.73;101916.53;6091140;23;6964;-76
2022/03/23 04:51:05;;;;;;;;;;;;;;;7.38;46.05;101915.66;6112477;23;6771;-76
2022/03/23 04:53:30;;;;;;;;;;;;;;;7.35;45.69;101912.09;6116114;23;6778;-76
2022/03/23 04:55:56;;;;;;;;;;;;;;;7.34;46.00;101922.16;6091714;23;6756;-76
2022/03/23 04:58:22;;;;;;;;;;;;;;;7.33;46.44;101918.69;6114179;23;6771;-76
2022/03/23 05:00:48;;;;;;;;;;;;;;;7.34;45.62;101917.06;6115248;23;6790;-76
2022/03/23 05:03:14;;;;;;;;;;;;;;;7.33;46.18;101913.59;6086237;23;6958;-76
2022/03/23 05:05:39;;;;;;;;;;;;;;;7.34;46.21;101928.16;6109450;23;6996;-76
2022/03/23 05:08:05;;;;;;;;;;;;;;;7.40;45.88;101924.34;6112849;23;6878;-76
2022/03/23 05:10:31;;;;;;;;;;;;;;;7.47;46.17;101921.56;6089718;23;7216;-76
2022/03/23 05:12:57;;;;;;;;;;;;;;;7.53;45.36;101927.16;6111134;23;6961;-76
2022/03/23 05:15:23;;;;;;;;;;;;;;;7.61;46.04;101928.69;6114872;23;6767;-76
2022/03/23 05:17:49;;;;;;;;;;;;;;;7.64;45.84;101926.44;6090641;23;7018;-76
2022/03/23 05:20:17;;;;;;;;;;;;;;;7.67;45.67;101919.78;6117112;23;6937;-76
2022/03/23 05:22:44;;;;;;;;;;;;;;;7.68;45.47;101921.56;6115296;23;6870;-76
2022/03/23 05:25:10;;;;;;;;;;;;;;;7.65;45.47;101917.09;6141650;23;7016;-76
2022/03/23 05:27:38;;;;;;;;;;;;;;;7.64;45.53;101916.22;6116659;23;7051;-75
2022/03/23 05:30:08;;;;;;;;;;;;;;;7.62;44.91;101922.81;6115496;23;6886;-75
2022/03/23 05:32:35;;;;;;;;;;;;;;;7.60;45.66;101924.38;6113305;23;6794;-75
2022/03/23 05:35:01;;;;;;;;;;;;;;;7.57;45.73;101924.13;6091411;23;7099;-75
2022/03/23 05:37:27;;;;;;;;;;;;;;;7.55;45.46;101922.19;6118153;23;6863;-75
2022/03/23 05:39:54;;;;;;;;;;;;;;;7.53;45.98;101936.47;6115799;23;6782;-75
2022/03/23 05:42:19;;;;;;;;;;;;;;;7.52;45.74;101924.50;6115681;23;7635;-75
2022/03/23 05:44:45;;;;;;;;;;;;;;;7.51;45.74;101928.69;6091163;23;7184;-75
2022/03/23 05:47:11;;;;;;;;;;;;;;;7.50;46.05;101934.56;6117172;23;6922;-75
2022/03/23 05:49:37;;;;;;;;;;;;;;;7.51;45.51;101931.25;6116711;23;6770;-76
2022/03/23 05:52:03;;;;;;;;;;;;;;;7.53;46.03;101939.03;6108891;23;6987;-75
2022/03/23 05:54:29;;;;;;;;;;;;;;;7.54;45.53;101936.63;6079259;23;6787;-75
2022/03/23 05:56:55;;;;;;;;;;;;;;;7.55;46.38;101940.97;6114137;23;7012;-75
2022/03/23 05:59:21;;;;;;;;;;;;;;;7.58;45.33;101930.09;6113626;23;6787;-76
2022/03/23 06:01:47;;;;;;;;;;;;;;;7.60;45.59;101931.16;6111004;23;6940;-75
2022/03/23 06:04:13;;;;;;;;;;;;;;;7.62;45.65;101933.03;6117345;23;6962;-75
2022/03/23 06:06:40;;;;;;;;;;;;;;;7.68;46.20;101936.88;6092745;23;6946;-75
2022/03/23 06:09:06;;;;;;;;;;;;;;;7.74;45.48;101934.88;6089732;23;6866;-75
2022/03/23 06:11:32;;;;;;;;;;;;;;;7.81;46.00;101926.06;6090076;23;6770;-75
2022/03/23 06:13:57;;;;;;;;;;;;;;;7.89;46.54;101938.69;6115670;23;7079;-75
2022/03/23 06:16:24;;;;;;;;;;;;;;;7.95;46.59;101935.75;6116448;23;6786;-75
2022/03/23 06:18:50;;;;;;;;;;;;;;;7.99;45.71;101942.00;6088061;23;7032;-75
2022/03/23 06:21:16;;;;;;;;;;;;;;;8.03;45.75;101946.63;6090606;23;6877;-75
2022/03/23 06:23:42;;;;;;;;;;;;;;;8.04;46.33;101941.63;6089678;23;7208;-75
2022/03/23 06:26:07;;;;;;;;;;;;;;;8.10;46.30;101942.91;6115292;23;7027;-75
2022/03/23 06:28:34;;;;;;;;;;;;;;;8.14;46.84;101940.72;6116018;23;6835;-75
2022/03/23 06:31:00;;;;;;;;;;;;;;;8.24;46.46;101944.03;6116508;23;7323;-75
2022/03/23 06:33:25;;;;;;;;;;;;;;;8.31;46.25;101942.09;6116763;23;6775;-75
2022/03/23 06:35:51;;;;;;;;;;;;;;;8.39;46.98;101945.28;6094017;23;6779;-75
2022/03/23 06:38:18;;;;;;;;;;;;;;;8.47;46.23;101946.81;6119759;23;6787;-75
2022/03/23 06:40:44;;;;;;;;;;;;;;;8.57;47.66;101952.69;6071910;23;7507;-75
2022/03/23 06:43:10;;;;;;;;;;;;;;;8.66;46.98;101952.56;6117832;23;7017;-75
2022/03/23 06:45:38;;;;;;;;;;;;;;;8.77;46.49;101959.44;6093701;23;6950;-74
2022/03/23 06:48:03;;;;;;;;;;;;;;;8.88;46.50;101957.72;6143576;23;6850;-74
2022/03/23 06:50:29;;;;;;;;;;;;;;;8.98;46.92;101962.81;6120922;23;6866;-75
2022/03/23 06:52:55;;;;;;;;;;;;;;;9.11;47.16;101971.44;6094485;23;6775;-75
2022/03/23 06:55:21;;;;;;;;;;;;;;;9.21;46.57;101963.72;6119841;23;7272;-75
2022/03/23 06:57:46;;;;;;;;;;;;;;;9.30;46.54;101966.09;6119273;23;7820;-75
2022/03/23 07:00:15;;;;;;;;;;;;;;;9.37;46.53;101965.81;6120752;23;6921;-75
2022/03/23 07:02:46;;;;;;;;;;;;;;;9.43;47.40;101970.53;6117386;23;6866;-75
2022/03/23 07:05:15;;;;;;;;;;;;;;;9.51;47.35;101973.66;6116094;23;7122;-75
2022/03/23 07:09:31;;;;;;;;;;;;;;;9.58;46.95;101964.03;6094332;23;6787;-75
2022/03/23 07:10:27;;;;;;;;;;;;;;;9.68;46.16;101969.88;6119255;23;6938;-75
2022/03/23 07:12:54;;;;;;;;;;;;;;;9.77;45.86;101965.44;6114564;23;8021;-75
2022/03/23 07:15:20;;;;;;;;;;;;;;;9.88;45.76;101967.94;6117059;23;6778;-75
2022/03/23 07:17:45;;;;;;;;;;;;;;;10.00;46.06;101966.28;6116931;23;6872;-75
2022/03/23 07:20:11;;;;;;;;;;;;;;;10.12;45.98;101974.91;6093425;23;6751;-75
2022/03/23 07:22:37;;;;;;;;;;;;;;;10.27;46.03;101966.59;6117543;23;6861;-75
2022/03/23 07:25:03;;;;;;;;;;;;;;;10.44;45.81;101972.09;6115902;23;7991;-75
2022/03/23 07:27:29;;;;;;;;;;;;;;;10.62;46.31;101977.69;6115563;23;6794;-75
2022/03/23 07:29:54;;;;;;;;;;;;;;;10.79;46.00;101973.78;6115520;23;6778;-75
2022/03/23 07:32:20;;;;;;;;;;;;;;;10.97;46.27;101977.66;6116749;23;6770;-75
2022/03/23 07:34:46;;;;;;;;;;;;;;;11.14;45.94;101977.06;6118174;23;6853;-75
2022/03/23 07:37:12;;;;;;;;;;;;;;;11.28;46.38;101973.81;6142863;23;6762;-75
2022/03/23 07:39:37;;;;;;;;;;;;;;;11.42;46.60;101977.34;6115901;23;6766;-75
2022/03/23 07:42:05;;;;;;;;;;;;;;;11.56;46.61;101979.97;6116422;23;6853;-75
2022/03/23 07:44:32;;;;;;;;;;;;;;;11.67;46.33;101968.75;6117362;23;6960;-75
2022/03/23 07:46:59;;;;;;;;;;;;;;;11.79;46.51;101972.19;6116556;23;6763;-75
2022/03/23 07:49:25;;;;;;;;;;;;;;;11.90;46.17;101977.16;6090961;23;6955;-75
2022/03/23 07:51:51;;;;;;;;;;;;;;;12.04;46.00;101980.72;6143429;23;6778;-75
2022/03/23 07:54:17;;;;;;;;;;;;;;;12.17;46.25;101985.00;6118254;23;6927;-75
2022/03/23 07:56:43;;;;;;;;;;;;;;;12.32;46.39;101983.44;6117542;23;6979;-75
2022/03/23 07:59:10;;;;;;;;;;;;;;;12.47;46.41;101983.53;6118565;23;6766;-75
2022/03/23 08:01:35;;;;;;;;;;;;;;;12.65;45.75;101988.13;6114469;23;6862;-75
2022/03/23 08:04:02;;;;;;;;;;;;;;;12.81;46.09;101984.84;6117853;23;6930;-75
2022/03/23 08:06:35;;;;;;;;;;;;;;;13.01;46.16;101992.94;6120584;23;6787;-75
2022/03/23 08:09:02;;;;;;;;;;;;;;;13.18;46.33;101988.84;6117207;23;6859;-75
2022/03/23 08:11:28;;;;;;;;;;;;;;;13.32;45.71;101987.13;6120579;23;6871;-75
2022/03/23 08:13:54;;;;;;;;;;;;;;;13.48;45.83;101989.03;6118424;23;6999;-75
2022/03/23 08:16:20;;;;;;;;;;;;;;;13.62;46.10;101989.88;6120248;23;6763;-75
2022/03/23 08:18:46;;;;;;;;;;;;;;;13.75;45.10;101979.50;6119937;23;6782;-75
2022/03/23 08:21:11;;;;;;;;;;;;;;;13.93;44.90;101986.56;6119453;23;6787;-75
2022/03/23 08:23:38;;;;;;;;;;;;;;;14.09;45.75;101992.63;6118950;23;7006;-75
2022/03/23 08:26:09;;;;;;;;;;;;;;;14.26;45.66;101991.06;6094209;23;7042;-75
2022/03/23 08:28:35;;;;;;;;;;;;;;;14.42;45.05;101996.28;6119267;23;6928;-75
2022/03/23 08:31:01;;;;;;;;;;;;;;;14.58;45.26;101992.91;6119544;23;7963;-75
2022/03/23 08:33:29;;;;;;;;;;;;;;;14.72;44.82;101991.13;6120174;23;6992;-75
2022/03/23 08:35:55;;;;;;;;;;;;;;;14.86;43.91;101991.88;6121217;23;6786;-75
2022/03/23 08:38:20;;;;;;;;;;;;;;;15.01;44.04;101990.97;6070484;23;7226;-75
2022/03/23 08:40:46;;;;;;;;;;;;;;;15.15;44.32;101984.00;6122062;23;6786;-75
2022/03/23 08:43:12;;;;;;;;;;;;;;;15.29;44.09;101995.06;6119295;23;7094;-75
2022/03/23 08:45:37;;;;;;;;;;;;;;;15.40;42.82;101988.78;6122940;23;6937;-75
2022/03/23 08:48:03;;;;;;;;;;;;;;;15.55;43.00;101987.84;6145638;23;6958;-75
2022/03/23 08:50:30;;;;;;;;;;;;;;;15.68;42.67;101985.09;6122010;23;6786;-75
2022/03/23 08:52:56;;;;;;;;;;;;;;;15.83;42.26;101984.09;6119392;23;6941;-76
2022/03/23 08:55:24;;;;;;;;;;;;;;;15.99;42.00;101982.34;6123696;23;6790;-76
2022/03/23 08:57:50;;;;;;;;;;;;;;;16.12;40.80;101984.72;6121811;23;6933;-75
2022/03/23 09:00:16;;;;;;;;;;;;;;;16.26;40.66;101987.13;6094148;23;8426;-75
2022/03/23 09:02:42;;;;;;;;;;;;;;;16.40;40.18;101988.69;6119123;23;6790;-75
2022/03/23 09:05:14;;;;;;;;;;;;;;;16.52;39.54;101991.00;6122477;23;7070;-75
2022/03/23 09:07:42;;;;;;;;;;;;;;;16.64;39.09;101990.72;6119445;23;6869;-75
2022/03/23 09:10:15;;;;;;;;;;;;;;;16.74;38.30;101992.03;6121312;23;7198;-75
2022/03/23 09:12:42;;;;;;;;;;;;;;;16.87;38.73;101989.22;6120228;23;6786;-75
2022/03/23 09:15:12;;;;;;;;;;;;;;;16.97;37.84;101992.25;6120043;23;6949;-75
2022/03/23 09:17:39;;;;;;;;;;;;;;;17.07;38.01;101992.78;6122745;23;7107;-75
2022/03/23 09:20:07;;;;;;;;;;;;;;;17.17;37.26;101988.03;6121060;23;7812;-75
2022/03/23 09:22:35;;;;;;;;;;;;;;;17.25;37.46;101989.25;6096042;23;8554;-75
2022/03/23 09:25:08;;;;;;;;;;;;;;;17.33;37.21;101987.91;6125759;23;6862;-75
2022/03/23 09:27:39;;;;;;;;;;;;;;;17.40;37.27;101988.19;6126055;23;6975;-75
2022/03/23 09:30:08;;;;;;;;;;;;;;;17.49;37.31;101988.63;6097238;23;7860;-75
2022/03/23 09:32:34;;;;;;;;;;;;;;;17.59;37.76;101993.41;6117180;23;6967;-75
2022/03/23 09:35:00;;;;;;;;;;;;;;;17.68;37.21;101979.94;6119544;23;6771;-75
2022/03/23 09:40:11;;;;;;;;;;;;;;;17.86;36.77;101989.34;6117574;23;6867;-75
2022/03/23 09:42:40;;;;;;;;;;;;;;;17.94;36.60;101982.78;6111318;23;6955;-75
2022/03/23 09:45:07;;;;;;;;;;;;;;;18.03;36.40;101984.88;6139747;23;7043;-75
2022/03/23 09:47:33;;;;;;;;;;;;;;;18.11;36.35;101980.94;6142763;23;6949;-75
2022/03/23 09:49:58;;;;;;;;;;;;;;;18.18;36.23;101985.56;6143403;23;7268;-75
2022/03/23 09:52:25;;;;;;;;;;;;;;;18.29;36.55;101982.53;6127748;23;6804;-75
2022/03/23 09:54:50;;;;;;;;;;;;;;;18.37;35.85;101985.44;6119563;23;6787;-76
2022/03/23 09:57:16;;;;;;;;;;;;;;;18.43;35.78;101983.97;6123606;23;6843;-76
2022/03/23 09:59:42;;;;;;;;;;;;;;;18.52;36.13;101983.47;6120896;23;6767;-76
2022/03/23 10:02:38;;;;;;;;;;;;;;;18.61;35.80;101985.53;6121312;23;7083;-76
2022/03/23 10:05:42;;;;;;;;;;;;;;;18.71;35.52;101981.63;6120736;23;6786;-76
2022/03/23 10:08:23;;;;;;;;;;;;;;;18.78;34.76;101990.53;6119743;23;6790;-76
2022/03/23 10:11:15;;;;;;;;;;;;;;;18.89;35.03;101989.22;6116986;23;7006;-76
2022/03/23 10:14:38;;;;;;;;;;;;;;;18.95;34.33;101986.88;6120164;23;7042;-76
2022/03/23 10:17:35;;;;;;;;;;;;;;;19.03;34.23;101988.94;6120312;23;6810;-75
2022/03/23 10:20:01;;;;;;;;;;;;;;;19.10;34.26;101986.63;6119099;23;6937;-75
2022/03/23 10:22:29;;;;;;;;;;;;;;;19.24;34.04;101986.25;6116977;23;6858;-75
2022/03/23 10:24:55;;;;;;;;;;;;;;;19.38;34.72;101987.66;6119477;23;6779;-75
2022/03/23 10:27:24;;;;;;;;;;;;;;;19.65;33.80;101984.28;6094597;23;7175;-76
2022/03/23 10:29:52;;;;;;;;;;;;;;;20.32;33.94;101983.97;6141271;23;7088;-76
2022/03/23 10:32:21;;;;;;;;;;;;;;;21.32;32.91;101980.09;6117156;23;6803;-76
2022/03/23 10:34:52;;;;;;;;;;;;;;;22.42;31.53;101968.16;6116801;23;6975;-76
2022/03/23 10:37:25;;;;;;;;;;;;;;;23.63;30.95;101965.50;6116428;23;6783;-76
2022/03/23 10:39:52;;;;;;;;;;;;;;;24.79;29.81;101961.28;6115504;23;6775;-76
2022/03/23 10:42:21;;;;;;;;;;;;;;;25.67;28.51;101963.22;6139289;23;7130;-76
2022/03/23 10:44:48;;;;;;;;;;;;;;;26.45;28.16;101956.00;6119089;23;6987;-76
2022/03/23 10:47:31;;;;;;;;;;;;;;;27.23;27.06;101956.38;6110259;23;6805;-76
2022/03/23 10:50:10;;;;;;;;;;;;;;;27.90;26.90;101956.50;6113450;23;6783;-76
2022/03/23 10:52:51;;;;;;;;;;;;;;;28.68;26.11;101950.28;6112226;23;7309;-76
2022/03/23 10:55:17;;;;;;;;;;;;;;;29.05;24.74;101946.66;6107730;23;6791;-75
2022/03/23 10:58:16;;;;;;;;;;;;;;;29.46;24.63;101949.97;6110522;23;6778;-74
2022/03/23 11:00:42;;;;;;;;;;;;;;;29.96;24.09;101948.69;6108543;23;6843;-74
2022/03/23 11:03:09;;;;;;;;;;;;;;;30.22;23.44;101943.16;6111694;23;6977;-74
2022/03/23 11:05:37;;;;;;;;;;;;;;;30.48;23.18;101942.91;6110944;23;6854;-74
2022/03/23 11:08:19;;;;;;;;;;;;;;;30.94;23.31;101945.91;6111215;23;6888;-74
2022/03/23 11:16:35;;;;;;;;;;;;;;;32.26;21.26;101938.59;6111239;23;7200;-75
2022/03/23 11:19:10;;;;;;;;;;;;;;;32.30;21.42;101935.88;6112512;23;6956;-75
2022/03/23 11:22:06;;;;;;;;;;;;;;;32.45;21.14;101934.72;6110198;23;6782;-74
2022/03/23 11:24:41;;;;;;;;;;;;;;;32.28;20.86;101939.41;6112072;23;7037;-74
2022/03/23 11:27:18;;;;;;;;;;;;;;;31.81;20.76;101930.56;6112996;23;6855;-74
2022/03/23 11:29:49;;;;;;;;;;;;;;;31.32;20.56;101930.41;6089151;23;6774;-74
2022/03/23 11:32:37;;;;;;;;;;;;;;;31.04;20.92;101930.78;6086888;23;7119;-74
2022/03/23 11:35:07;;;;;;;;;;;;;;;31.06;20.81;101930.78;6113538;23;6783;-74
2022/03/23 11:37:37;;;;;;;;;;;;;;;31.47;21.11;101925.78;6113970;23;6782;-74
2022/03/23 11:40:04;;;;;;;;;;;;;;;32.05;20.38;101925.69;6112360;23;7003;-74
2022/03/23 11:42:29;;;;;;;;;;;;;;;32.37;20.55;101922.47;6112688;23;6977;-74
2022/03/23 11:44:56;;;;;;;;;;;;;;;32.62;19.92;101921.09;6112791;23;6979;-74
2022/03/23 11:47:44;;;;;;;;;;;;;;;33.06;19.77;101921.06;6111583;23;6783;-74
2022/03/23 11:50:39;;;;;;;;;;;;;;;33.54;19.31;101904.03;6112114;23;6775;-74
2022/03/23 11:53:26;;;;;;;;;;;;;;;33.90;18.94;101904.00;6109942;23;6843;-74
2022/03/23 11:55:54;;;;;;;;;;;;;;;34.15;18.51;101913.09;6109918;23;6990;-74
2022/03/23 11:58:31;;;;;;;;;;;;;;;34.31;18.48;101905.56;6088519;23;6984;-74
2022/03/23 12:01:11;;;;;;;;;;;;;;;34.35;18.03;101905.44;6109430;23;7775;-74
2022/03/23 12:03:40;;;;;;;;;;;;;;;34.36;18.17;101906.28;6110637;23;6786;-74
2022/03/23 12:06:12;;;;;;;;;;;;;;;34.42;17.89;101894.59;6108401;23;6972;-74
2022/03/23 12:08:57;;;;;;;;;;;;;;;34.31;18.10;101886.94;6120504;23;7196;-74
2022/03/23 12:11:45;;;;;;;;;;;;;;;34.07;17.95;101884.03;6147299;23;7028;-73
2022/03/23 12:14:35;;;;;;;;;;;;;;;34.05;17.40;101891.19;6125408;23;6985;-73
2022/03/23 12:17:15;;;;;;;;;;;;;;;33.95;17.47;101887.91;6097855;23;6881;-73
2022/03/23 12:20:08;;;;;;;;;;;;;;;33.91;17.72;101887.13;6124838;23;6951;-73
2022/03/23 12:22:33;;;;;;;;;;;;;;;34.05;17.63;101880.56;6122962;23;6779;-73
2022/03/23 12:25:20;;;;;;;;;;;;;;;34.11;17.16;101874.19;6124381;23;6962;-74
2022/03/23 12:27:46;;;;;;;;;;;;;;;33.88;17.07;101879.19;6122658;23;6934;-74
2022/03/23 12:30:24;;;;;;;;;;;;;;;33.47;17.46;101874.09;6095932;23;6934;-74
2022/03/23 12:32:50;;;;;;;;;;;;;;;33.22;17.89;101868.44;6119489;23;6958;-74
2022/03/23 12:35:32;;;;;;;;;;;;;;;32.82;17.24;101864.94;6122157;23;6855;-74
2022/03/23 12:38:02;;;;;;;;;;;;;;;31.84;17.89;101875.72;6122224;23;6783;-74
2022/03/23 12:40:42;;;;;;;;;;;;;;;30.57;18.53;101870.50;6125068;23;6783;-74
2022/03/23 12:43:08;;;;;;;;;;;;;;;29.52;18.20;101872.47;6122087;23;6778;-74
2022/03/23 12:45:39;;;;;;;;;;;;;;;28.61;18.98;101869.44;6121032;23;8256;-73
2022/03/23 12:57:49;;;;;;;;;;;;;;;27.80;19.69;101872.22;6123817;23;6778;-73
2022/03/23 12:59:26;;;;;;;;;;;;;;;25.77;20.92;101873.19;6126551;23;6862;-74
2022/03/23 13:02:19;;;;;;;;;;;;;;;25.43;20.78;101864.09;6123104;23;6797;-75
2022/03/23 13:04:45;;;;;;;;;;;;;;;25.14;20.53;101876.03;6149760;23;7161;-75
2022/03/23 13:07:29;;;;;;;;;;;;;;;24.91;20.83;101857.44;6124504;23;6995;-75
2022/03/23 13:10:04;;;;;;;;;;;;;;;24.73;20.82;101858.06;6123011;23;6821;-76
2022/03/23 13:12:31;;;;;;;;;;;;;;;24.56;21.03;101858.72;6125369;23;6802;-76
2022/03/23 13:14:59;;;;;;;;;;;;;;;24.41;22.09;101856.78;6096761;23;7082;-76
2022/03/23 13:17:25;;;;;;;;;;;;;;;24.25;21.90;101851.38;6122144;23;6938;-76
2022/03/23 13:19:58;;;;;;;;;;;;;;;24.11;21.96;101851.16;6098297;23;6782;-76
2022/03/23 13:22:38;;;;;;;;;;;;;;;24.12;22.16;101849.41;6121021;23;7143;-76
2022/03/23 13:25:14;;;;;;;;;;;;;;;24.33;22.91;101846.22;6124402;23;7227;-75
2022/03/23 13:27:41;;;;;;;;;;;;;;;24.77;21.91;101845.03;6124851;23;7224;-76
2022/03/23 13:30:17;;;;;;;;;;;;;;;25.35;21.66;101845.63;6120978;23;6783;-76